Flight Track Log - Related Links

Times and Time Zones

All times are in EDT time to prevent confusion due to time zone crossing. See the AWI3722 flight status page for this flight to view local times or setup timezone preferences in your user account.

Time Position Orientation Groundspeed Altitude Reporting Facility
EDT Latitude Longitude Course Direction KTS MPH feet Rate Location/Type
Tue 01:55:13 PM 39.8581 -75.2797 90° East 161 185 900  Level FAA TRACON SMA TRACON (SMA)
Tue 01:55:33 PM 39.8436 -75.2931 215° Southwest 171 197 1,400 1,500 Climbing FAA TRACON SMA TRACON (SMA)
Tue 01:55:53 PM 39.8297 -75.3044 212° Southwest 196 226 1,900 1,950 Climbing FAA TRACON SMA TRACON (SMA)
Tue 01:56:13 PM 39.8147 -75.3172 213° Southwest 208 239 2,700 2,100 Climbing FAA TRACON SMA TRACON (SMA)
Tue 01:56:33 PM 39.7925 -75.3278 200° South 239 275 3,300 1,650 Climbing FAA TRACON SMA TRACON (SMA)
Tue 01:56:53 PM 39.7711 -75.3192 163° South 274 315 3,800 2,049 Climbing FAA TRACON SMA TRACON (SMA)
Tue 01:57:00 PM 39.8063 -74.8145 105° East  Level FlightAware Approximate
Tue 01:57:14 PM 39.7544 -75.2881 125° Southeast 288 331 4,700  Level FAA TRACON SMA TRACON (SMA)
Tue 01:57:33 PM 39.7533 -75.2592 93° East 290 334 5,400 2,462 Climbing FAA TRACON SMA TRACON (SMA)
Tue 01:57:53 PM 39.7569 -75.2242 82° East 296 341 6,300 2,700 Climbing FAA TRACON SMA TRACON (SMA)
Tue 01:58:00 PM 39.7887 -74.6733 75° East  Level FlightAware Approximate
Tue 01:58:13 PM 39.7608 -75.1847 83° East 301 346 7,200  Level FAA TRACON SMA TRACON (SMA)
Tue 01:58:34 PM 39.7639 -75.1497 84° East 306 352 8,100 2,400 Climbing FAA TRACON SMA TRACON (SMA)
Tue 01:58:53 PM 39.7661 -75.1158 85° East 306 352 8,800 2,250 Climbing FAA TRACON SMA TRACON (SMA)
Tue 01:59:00 PM 39.8000 -74.5293 90° East  Level FlightAware Approximate
Tue 01:59:14 PM 39.7689 -75.0733 85° East 312 359 9,600  Level FAA TRACON SMA TRACON (SMA)
Tue 01:59:33 PM 39.7714 -75.0369 85° East 317 365 10,400 2,000 Climbing FAA TRACON SMA TRACON (SMA)
Tue 01:59:53 PM 39.7736 -74.9975 86° East 322 371 10,900 878 Climbing FAA TRACON SMA TRACON (SMA)
Tue 02:00:00 PM 39.8167 -74.3940 90° East  Level FlightAware Approximate
Tue 02:00:14 PM 39.7775 -74.9528 84° East 362 417 11,000  Level FAA TRACON SMA TRACON (SMA)
Tue 02:00:34 PM 39.7808 -74.9147 83° East 361 415 11,400 1,385 Climbing FAA TRACON SMA TRACON (SMA)
Tue 02:00:53 PM 39.7831 -74.8714 86° East 374 430 11,900 1,692 Climbing FAA TRACON SMA TRACON (SMA)
Tue 02:01:13 PM 39.7864 -74.8192 85° East 377 434 12,500 1,463 Climbing FAA TRACON SMA TRACON (SMA)
Tue 02:01:34 PM 39.7894 -74.7789 84° East 380 437 12,900 1,463 Climbing FAA TRACON SMA TRACON (SMA)
Tue 02:01:54 PM 39.7919 -74.7344 86° East 383 441 13,500 1,950 Climbing FAA TRACON SMA TRACON (SMA)
Tue 02:02:14 PM 39.7961 -74.6806 84° East 385 443 14,200 1,650 Climbing FAA TRACON SMA TRACON (SMA)
Tue 02:02:34 PM 39.7997 -74.6375 84° East 388 447 14,600 1,350 Climbing FAA TRACON SMA TRACON (SMA)
Tue 02:02:54 PM 39.8028 -74.5975 84° East 392 451 15,100 1,800 Climbing FAA TRACON SMA TRACON (SMA)
Tue 02:03:14 PM 39.8081 -74.5386 83° East 395 455 15,800 1,650 Climbing FAA TRACON SMA TRACON (SMA)
Tue 02:03:34 PM 39.8119 -74.4947 83° East 397 457 16,200 1,500 Climbing FAA TRACON SMA TRACON (SMA)
Tue 02:03:54 PM 39.8181 -74.4431 81° East 400 460 16,800 1,692 Climbing FAA TRACON SMA TRACON (SMA)
Tue 02:04:13 PM 39.8189 -74.3947 89° East 401 461 17,300 1,350 Climbing FAA TRACON SMA TRACON (SMA)
Tue 02:04:34 PM 39.8172 -74.3486 93° East 407 468 17,700 1,077 Climbing FAA TRACON SMA TRACON (SMA)
Tue 02:04:52 PM 39.8186 -74.3167 87° East 405 466 18,000 1,115 Climbing New York Center
Tue 02:07:10 PM 39.9114 -74.0250 67° East 383 441 20,600 1,206 Climbing Boston Center
Tue 02:08:11 PM 39.9961 -73.9269 42° Northeast 382 440 22,000 1,140 Climbing Boston Center
Tue 02:09:11 PM 40.0786 -73.8311 42° Northeast 387 445 22,900 744 Climbing Boston Center
Tue 02:10:12 PM 40.1631 -73.7325 42° Northeast 394 453 23,500 1,160 Climbing Boston Center
Tue 02:11:10 PM 40.2433 -73.6361 42° Northeast 394 453 25,200 1,412 Climbing Boston Center
Tue 02:12:11 PM 40.3217 -73.5369 44° Northeast 394 453 26,300 1,091 Climbing Boston Center
Tue 02:13:11 PM 40.4036 -73.4403 42° Northeast 389 448 27,400 1,091 Climbing Boston Center
Tue 02:14:12 PM 40.4817 -73.3458 43° Northeast 389 448 28,500 807 Climbing Boston Center
Tue 02:15:10 PM 40.5594 -73.2486 44° Northeast 384 442 29,000 252 Climbing Boston Center
Tue 02:16:11 PM 40.6372 -73.1567 42° Northeast 379 436 29,000  Level Boston Center
Tue 02:17:11 PM 40.7147 -73.0589 44° Northeast 379 436 29,000  Level Boston Center
Tue 02:18:11 PM 40.8008 -72.9611 41° Northeast 372 428 29,000 -446 Level Boston Center
Tue 02:19:12 PM 40.8783 -72.8656 43° Northeast 367 422 28,100 -934 Descending Boston Center
Tue 02:20:13 PM 40.9556 -72.7700 43° Northeast 373 429 27,100 -1,017 Descending Boston Center
Tue 02:21:10 PM 41.0331 -72.6739 43° Northeast 373 429 26,100 -1,017 Descending Boston Center
Tue 02:22:11 PM 41.1103 -72.5778 43° Northeast 373 429 25,100 -541 Descending Boston Center
Tue 02:23:12 PM 41.1833 -72.4814 45° Northeast 368 423 25,000 -50 Descending Boston Center
Tue 02:24:12 PM 41.2583 -72.3903 42° Northeast 368 423 25,000  Level Boston Center
Tue 02:25:13 PM 41.3333 -72.2908 45° Northeast 368 423 25,000  Level Boston Center
Tue 02:26:12 PM 41.4039 -72.2022 43° Northeast 368 423 25,000  Level Boston Center
Tue 02:27:12 PM 41.4808 -72.1047 43° Northeast 368 423 25,000  Level Boston Center
Tue 02:28:12 PM 41.5575 -72.0072 44° Northeast 373 429 25,000  Level Boston Center
Tue 02:29:13 PM 41.6364 -71.9094 43° Northeast 373 429 25,000  Level Boston Center
Tue 02:30:10 PM 41.7131 -71.8117 44° Northeast 373 429 25,000  Level Boston Center
Tue 02:31:10 PM 41.7853 -71.7133 45° Northeast 373 429 25,000  Level Boston Center
Tue 02:32:11 PM 41.8556 -71.6094 48° Northeast 368 423 25,000 -99 Level Boston Center
Tue 02:33:11 PM 41.9044 -71.4806 63° Northeast 379 436 24,800 -492 Descending Boston Center
Tue 02:34:13 PM 41.9850 -71.3844 42° Northeast 379 436 24,000 -403 Descending Boston Center
Tue 02:35:10 PM 42.0675 -71.2992 37° Northeast 371 427 24,000  Level Boston Center
Tue 02:36:10 PM 42.1458 -71.2164 38° Northeast 365 420 24,000  Level Boston Center
Tue 02:37:11 PM 42.2261 -71.1308 38° Northeast 365 420 24,000  Level Boston Center
Tue 02:38:11 PM 42.2942 -71.0592 38° Northeast 365 420 24,000  Level Boston Center
Tue 02:39:12 PM 42.3825 -70.9644 38° Northeast 365 420 24,000  Level Boston Center
Tue 02:40:11 PM 42.4667 -70.8753 38° Northeast 365 420 24,000 -458 Level Boston Center
Tue 02:41:23 PM 42.5508 -70.7828 39° Northeast 365 420 23,000 -1,374 Descending Boston Center
Tue 02:42:22 PM 42.6369 -70.6875 39° Northeast 365 420 21,000 -2,000 Descending Boston Center
Tue 02:43:23 PM 42.7275 -70.6086 33° Northeast 349 402 19,000 -1,918 Descending Boston Center
Tue 02:44:24 PM 42.8183 -70.5550 23° Northeast 343 395 17,100 -1,785 Descending Boston Center
Tue 02:45:24 PM 42.8947 -70.5072 25° Northeast 337 388 15,400 -1,881 Descending Boston Center
Tue 02:46:22 PM 42.9811 -70.4506 26° Northeast 325 374 13,400 -1,815 Descending Boston Center
Tue 02:47:23 PM 43.0492 -70.4000 28° Northeast 313 360 11,800 -1,190 Descending Boston Center
Tue 02:48:23 PM 43.1294 -70.3492 25° Northeast 308 354 11,000 -893 Descending Boston Center
Tue 02:49:24 PM 43.2139 -70.3006 23° Northeast 301 346 10,000 -1,328 Descending Boston Center
Tue 02:50:25 PM 43.2736 -70.2642 24° Northeast 275 316 8,300 -1,017 Descending Boston Center
Tue 02:51:22 PM 43.3481 -70.2217 23° Northeast 268 308 8,000 -359 Descending Boston Center
Tue 02:52:22 PM 43.4097 -70.1850 23° Northeast 263 303 7,600 -1,289 Descending Boston Center
Tue 02:53:23 PM 43.4839 -70.1394 24° Northeast 263 303 5,400 -1,884 Descending Boston Center
Tue 02:54:23 PM 43.5417 -70.1056 23° Northeast 263 303 3,800 -1,736 Descending Boston Center
Tue 02:55:24 PM 43.6083 -70.1144 354° North 224 258 1,900 -1,869 Descending Boston Center

Login

Don't have an account? Register now (free) for customized features, flight alerts, and more!